sensor_id;sensor_type;location;lat;lon;timestamp;temperature;humidity
5850;DHT22;2951;47.712;9.400;2022-10-18T00:00:48;11.80;99.90
5850;DHT22;2951;47.712;9.400;2022-10-18T00:03:15;11.80;99.90
5850;DHT22;2951;47.712;9.400;2022-10-18T00:05:42;11.70;99.90
5850;DHT22;2951;47.712;9.400;2022-10-18T00:08:09;11.70;99.90
5850;DHT22;2951;47.712;9.400;2022-10-18T00:10:35;11.70;99.90
5850;DHT22;2951;47.712;9.400;2022-10-18T00:13:02;11.70;99.90
5850;DHT22;2951;47.712;9.400;2022-10-18T00:15:29;11.70;99.90
5850;DHT22;2951;47.712;9.400;2022-10-18T00:17:56;11.70;99.90
5850;DHT22;2951;47.712;9.400;2022-10-18T00:20:22;11.70;99.90
5850;DHT22;2951;47.712;9.400;2022-10-18T00:22:49;11.70;99.90
5850;DHT22;2951;47.712;9.400;2022-10-18T00:25:16;11.60;99.90
5850;DHT22;2951;47.712;9.400;2022-10-18T00:27:43;11.60;99.90
5850;DHT22;2951;47.712;9.400;2022-10-18T00:30:09;11.60;99.90
5850;DHT22;2951;47.712;9.400;2022-10-18T00:32:37;11.60;99.90
5850;DHT22;2951;47.712;9.400;2022-10-18T00:35:04;11.60;99.90
5850;DHT22;2951;47.712;9.400;2022-10-18T00:37:31;11.50;99.90
5850;DHT22;2951;47.712;9.400;2022-10-18T00:39:58;11.50;99.90
5850;DHT22;2951;47.712;9.400;2022-10-18T00:42:29;11.40;99.90
5850;DHT22;2951;47.712;9.400;2022-10-18T00:44:58;11.40;99.90
5850;DHT22;2951;47.712;9.400;2022-10-18T00:47:25;11.40;99.90
5850;DHT22;2951;47.712;9.400;2022-10-18T00:49:53;11.50;99.90
5850;DHT22;2951;47.712;9.400;2022-10-18T00:52:32;11.60;99.90
5850;DHT22;2951;47.712;9.400;2022-10-18T00:55:00;11.70;99.90
5850;DHT22;2951;47.712;9.400;2022-10-18T00:57:27;11.70;99.90
5850;DHT22;2951;47.712;9.400;2022-10-18T00:59:53;11.70;99.90
5850;DHT22;2951;47.712;9.400;2022-10-18T01:02:21;11.70;99.90
5850;DHT22;2951;47.712;9.400;2022-10-18T01:04:48;11.70;99.90
5850;DHT22;2951;47.712;9.400;2022-10-18T01:09:57;11.70;99.90
5850;DHT22;2951;47.712;9.400;2022-10-18T01:12:31;11.70;99.90
5850;DHT22;2951;47.712;9.400;2022-10-18T01:15:05;11.60;99.90
5850;DHT22;2951;47.712;9.400;2022-10-18T01:22:34;11.70;99.90
5850;DHT22;2951;47.712;9.400;2022-10-18T01:27:38;11.60;99.90
5850;DHT22;2951;47.712;9.400;2022-10-18T01:32:46;11.60;99.90
5850;DHT22;2951;47.712;9.400;2022-10-18T01:35:15;11.60;99.90
5850;DHT22;2951;47.712;9.400;2022-10-18T01:37:44;11.60;99.90
5850;DHT22;2951;47.712;9.400;2022-10-18T01:40:11;11.60;99.90
5850;DHT22;2951;47.712;9.400;2022-10-18T01:42:38;11.60;99.90
5850;DHT22;2951;47.712;9.400;2022-10-18T01:45:05;11.70;99.90
5850;DHT22;2951;47.712;9.400;2022-10-18T01:47:34;11.70;99.90
5850;DHT22;2951;47.712;9.400;2022-10-18T01:50:03;11.70;99.90
5850;DHT22;2951;47.712;9.400;2022-10-18T01:52:30;11.70;99.90
5850;DHT22;2951;47.712;9.400;2022-10-18T01:54:57;11.60;99.90
5850;DHT22;2951;47.712;9.400;2022-10-18T01:57:30;11.50;99.90
5850;DHT22;2951;47.712;9.400;2022-10-18T02:00:13;11.50;99.90
5850;DHT22;2951;47.712;9.400;2022-10-18T02:02:46;11.50;99.90
5850;DHT22;2951;47.712;9.400;2022-10-18T02:05:37;11.60;99.90
5850;DHT22;2951;47.712;9.400;2022-10-18T02:10:50;11.80;99.90
5850;DHT22;2951;47.712;9.400;2022-10-18T02:13:19;11.80;99.90
5850;DHT22;2951;47.712;9.400;2022-10-18T02:15:47;11.90;99.90
5850;DHT22;2951;47.712;9.400;2022-10-18T02:18:23;11.90;99.90
5850;DHT22;2951;47.712;9.400;2022-10-18T02:20:51;11.90;99.90
5850;DHT22;2951;47.712;9.400;2022-10-18T02:23:18;12.00;99.90
5850;DHT22;2951;47.712;9.400;2022-10-18T02:25:46;12.00;99.90
5850;DHT22;2951;47.712;9.400;2022-10-18T02:28:13;12.00;99.90
5850;DHT22;2951;47.712;9.400;2022-10-18T02:30:43;12.00;99.90
5850;DHT22;2951;47.712;9.400;2022-10-18T02:33:16;12.00;99.90
5850;DHT22;2951;47.712;9.400;2022-10-18T02:35:46;12.00;99.90
5850;DHT22;2951;47.712;9.400;2022-10-18T02:38:15;12.00;99.90
5850;DHT22;2951;47.712;9.400;2022-10-18T02:40:43;12.00;99.90
5850;DHT22;2951;47.712;9.400;2022-10-18T02:43:09;12.00;99.90
5850;DHT22;2951;47.712;9.400;2022-10-18T02:45:36;12.10;99.90
5850;DHT22;2951;47.712;9.400;2022-10-18T02:48:03;12.10;99.90
5850;DHT22;2951;47.712;9.400;2022-10-18T02:50:29;12.20;99.90
5850;DHT22;2951;47.712;9.400;2022-10-18T02:52:56;12.20;99.90
5850;DHT22;2951;47.712;9.400;2022-10-18T02:55:23;12.10;99.90
5850;DHT22;2951;47.712;9.400;2022-10-18T02:57:50;12.20;99.90
5850;DHT22;2951;47.712;9.400;2022-10-18T03:00:16;12.20;99.90
5850;DHT22;2951;47.712;9.400;2022-10-18T03:02:43;12.20;99.90
5850;DHT22;2951;47.712;9.400;2022-10-18T03:05:10;12.20;99.90
5850;DHT22;2951;47.712;9.400;2022-10-18T03:07:36;12.20;99.90
5850;DHT22;2951;47.712;9.400;2022-10-18T03:10:03;12.30;99.90
5850;DHT22;2951;47.712;9.400;2022-10-18T03:12:30;12.30;99.90
5850;DHT22;2951;47.712;9.400;2022-10-18T03:14:56;12.20;99.90
5850;DHT22;2951;47.712;9.400;2022-10-18T03:17:23;12.30;99.90
5850;DHT22;2951;47.712;9.400;2022-10-18T03:19:50;12.00;99.90
5850;DHT22;2951;47.712;9.400;2022-10-18T03:22:16;11.80;99.90
5850;DHT22;2951;47.712;9.400;2022-10-18T03:24:43;11.80;99.90
5850;DHT22;2951;47.712;9.400;2022-10-18T03:27:10;11.70;99.90
5850;DHT22;2951;47.712;9.400;2022-10-18T03:29:37;11.70;99.90
5850;DHT22;2951;47.712;9.400;2022-10-18T03:32:04;11.80;99.90
5850;DHT22;2951;47.712;9.400;2022-10-18T03:34:30;11.90;99.90
5850;DHT22;2951;47.712;9.400;2022-10-18T03:36:57;12.00;99.90
5850;DHT22;2951;47.712;9.400;2022-10-18T03:39:27;12.00;99.90
5850;DHT22;2951;47.712;9.400;2022-10-18T03:41:54;12.00;99.90
5850;DHT22;2951;47.712;9.400;2022-10-18T03:44:20;12.10;99.90
5850;DHT22;2951;47.712;9.400;2022-10-18T03:46:47;12.10;99.90
5850;DHT22;2951;47.712;9.400;2022-10-18T03:49:14;12.10;99.90
5850;DHT22;2951;47.712;9.400;2022-10-18T03:51:40;12.20;99.90
5850;DHT22;2951;47.712;9.400;2022-10-18T03:54:07;12.20;99.90
5850;DHT22;2951;47.712;9.400;2022-10-18T03:56:34;12.20;99.90
5850;DHT22;2951;47.712;9.400;2022-10-18T03:59:00;12.20;99.90
5850;DHT22;2951;47.712;9.400;2022-10-18T04:01:29;12.20;99.90
5850;DHT22;2951;47.712;9.400;2022-10-18T04:03:56;12.10;99.90
5850;DHT22;2951;47.712;9.400;2022-10-18T04:06:23;12.00;99.90
5850;DHT22;2951;47.712;9.400;2022-10-18T04:08:49;12.00;99.90
5850;DHT22;2951;47.712;9.400;2022-10-18T04:11:16;12.00;99.90
5850;DHT22;2951;47.712;9.400;2022-10-18T04:13:43;12.00;99.90
5850;DHT22;2951;47.712;9.400;2022-10-18T04:16:09;12.00;99.90
5850;DHT22;2951;47.712;9.400;2022-10-18T04:18:36;12.00;99.90
5850;DHT22;2951;47.712;9.400;2022-10-18T04:21:03;12.00;99.90
5850;DHT22;2951;47.712;9.400;2022-10-18T04:23:30;12.00;99.90
5850;DHT22;2951;47.712;9.400;2022-10-18T04:25:59;12.00;99.90
5850;DHT22;2951;47.712;9.400;2022-10-18T04:28:25;11.90;99.90
5850;DHT22;2951;47.712;9.400;2022-10-18T04:30:52;11.90;99.90
5850;DHT22;2951;47.712;9.400;2022-10-18T04:33:20;11.80;99.90
5850;DHT22;2951;47.712;9.400;2022-10-18T04:35:46;11.60;99.90
5850;DHT22;2951;47.712;9.400;2022-10-18T04:38:16;11.50;99.90
5850;DHT22;2951;47.712;9.400;2022-10-18T04:40:43;11.60;99.90
5850;DHT22;2951;47.712;9.400;2022-10-18T04:43:10;11.50;99.90
5850;DHT22;2951;47.712;9.400;2022-10-18T04:45:36;11.60;99.90
5850;DHT22;2951;47.712;9.400;2022-10-18T04:48:03;11.60;99.90
5850;DHT22;2951;47.712;9.400;2022-10-18T04:50:30;11.60;99.90
5850;DHT22;2951;47.712;9.400;2022-10-18T04:52:57;11.60;99.90
5850;DHT22;2951;47.712;9.400;2022-10-18T04:55:23;11.70;99.90
5850;DHT22;2951;47.712;9.400;2022-10-18T04:57:51;11.60;99.90
5850;DHT22;2951;47.712;9.400;2022-10-18T05:00:18;11.60;99.90
5850;DHT22;2951;47.712;9.400;2022-10-18T05:02:44;11.60;99.90
5850;DHT22;2951;47.712;9.400;2022-10-18T05:05:11;11.60;99.90
5850;DHT22;2951;47.712;9.400;2022-10-18T05:07:39;11.70;99.90
5850;DHT22;2951;47.712;9.400;2022-10-18T05:10:06;11.70;99.90
5850;DHT22;2951;47.712;9.400;2022-10-18T05:12:33;11.60;99.90
5850;DHT22;2951;47.712;9.400;2022-10-18T05:15:00;11.60;99.90
5850;DHT22;2951;47.712;9.400;2022-10-18T05:17:26;11.60;99.90
5850;DHT22;2951;47.712;9.400;2022-10-18T05:19:53;11.60;99.90
5850;DHT22;2951;47.712;9.400;2022-10-18T05:22:20;11.50;99.90
5850;DHT22;2951;47.712;9.400;2022-10-18T05:24:46;11.50;99.90
5850;DHT22;2951;47.712;9.400;2022-10-18T05:27:13;11.40;99.90
5850;DHT22;2951;47.712;9.400;2022-10-18T05:29:40;11.50;99.90
5850;DHT22;2951;47.712;9.400;2022-10-18T05:32:06;11.40;99.90
5850;DHT22;2951;47.712;9.400;2022-10-18T05:34:33;11.40;99.90
5850;DHT22;2951;47.712;9.400;2022-10-18T05:37:00;11.40;99.90
5850;DHT22;2951;47.712;9.400;2022-10-18T05:39:27;11.30;99.90
5850;DHT22;2951;47.712;9.400;2022-10-18T05:41:53;11.30;99.90
5850;DHT22;2951;47.712;9.400;2022-10-18T05:44:20;11.20;99.90
5850;DHT22;2951;47.712;9.400;2022-10-18T05:46:47;11.30;99.90
5850;DHT22;2951;47.712;9.400;2022-10-18T05:49:13;11.40;99.90
5850;DHT22;2951;47.712;9.400;2022-10-18T05:51:41;11.50;99.90
5850;DHT22;2951;47.712;9.400;2022-10-18T05:54:09;11.50;99.90
5850;DHT22;2951;47.712;9.400;2022-10-18T05:56:36;11.60;99.90
5850;DHT22;2951;47.712;9.400;2022-10-18T05:59:04;11.50;99.90
5850;DHT22;2951;47.712;9.400;2022-10-18T06:01:35;11.50;99.90
5850;DHT22;2951;47.712;9.400;2022-10-18T06:04:02;11.40;99.90
5850;DHT22;2951;47.712;9.400;2022-10-18T06:06:29;11.50;99.90
5850;DHT22;2951;47.712;9.400;2022-10-18T06:08:56;11.40;99.90
5850;DHT22;2951;47.712;9.400;2022-10-18T06:11:23;11.40;99.90
5850;DHT22;2951;47.712;9.400;2022-10-18T06:13:50;11.50;99.90
5850;DHT22;2951;47.712;9.400;2022-10-18T06:16:18;11.40;99.90
5850;DHT22;2951;47.712;9.400;2022-10-18T06:18:48;11.30;99.90
5850;DHT22;2951;47.712;9.400;2022-10-18T06:21:15;11.30;99.90
5850;DHT22;2951;47.712;9.400;2022-10-18T06:23:42;11.40;99.90
5850;DHT22;2951;47.712;9.400;2022-10-18T06:26:09;11.40;99.90
5850;DHT22;2951;47.712;9.400;2022-10-18T06:28:36;11.40;99.90
5850;DHT22;2951;47.712;9.400;2022-10-18T06:31:04;11.50;99.90
5850;DHT22;2951;47.712;9.400;2022-10-18T06:33:32;11.60;99.90
5850;DHT22;2951;47.712;9.400;2022-10-18T06:36:03;11.60;99.90
5850;DHT22;2951;47.712;9.400;2022-10-18T06:38:30;11.60;99.90
5850;DHT22;2951;47.712;9.400;2022-10-18T06:40:57;11.50;99.90
5850;DHT22;2951;47.712;9.400;2022-10-18T06:43:24;11.60;99.90
5850;DHT22;2951;47.712;9.400;2022-10-18T06:45:51;11.60;99.90
5850;DHT22;2951;47.712;9.400;2022-10-18T06:48:18;11.60;99.90
5850;DHT22;2951;47.712;9.400;2022-10-18T06:50:52;11.60;99.90
5850;DHT22;2951;47.712;9.400;2022-10-18T06:53:19;11.60;99.90
5850;DHT22;2951;47.712;9.400;2022-10-18T06:55:45;11.70;99.90
5850;DHT22;2951;47.712;9.400;2022-10-18T06:58:12;11.80;99.90
5850;DHT22;2951;47.712;9.400;2022-10-18T07:00:39;11.80;99.90
5850;DHT22;2951;47.712;9.400;2022-10-18T07:03:05;12.00;99.90
5850;DHT22;2951;47.712;9.400;2022-10-18T07:05:32;12.10;99.90
5850;DHT22;2951;47.712;9.400;2022-10-18T07:08:03;12.20;99.90
5850;DHT22;2951;47.712;9.400;2022-10-18T07:10:30;12.30;99.90
5850;DHT22;2951;47.712;9.400;2022-10-18T07:12:57;12.40;99.90
5850;DHT22;2951;47.712;9.400;2022-10-18T07:15:44;12.50;99.90
5850;DHT22;2951;47.712;9.400;2022-10-18T07:18:10;12.60;99.90
5850;DHT22;2951;47.712;9.400;2022-10-18T07:20:37;12.50;99.90
5850;DHT22;2951;47.712;9.400;2022-10-18T07:23:04;12.50;99.90
5850;DHT22;2951;47.712;9.400;2022-10-18T07:25:34;12.40;99.90
5850;DHT22;2951;47.712;9.400;2022-10-18T07:28:01;12.50;99.90
5850;DHT22;2951;47.712;9.400;2022-10-18T07:30:27;12.50;99.90
5850;DHT22;2951;47.712;9.400;2022-10-18T07:32:54;12.60;99.90
5850;DHT22;2951;47.712;9.400;2022-10-18T07:35:21;12.70;99.90
5850;DHT22;2951;47.712;9.400;2022-10-18T07:37:47;12.70;99.90
5850;DHT22;2951;47.712;9.400;2022-10-18T07:40:14;12.80;99.90
5850;DHT22;2951;47.712;9.400;2022-10-18T07:42:41;12.90;99.90
5850;DHT22;2951;47.712;9.400;2022-10-18T07:45:07;13.00;99.90
5850;DHT22;2951;47.712;9.400;2022-10-18T07:47:34;13.10;99.90
5850;DHT22;2951;47.712;9.400;2022-10-18T07:50:02;13.10;99.90
5850;DHT22;2951;47.712;9.400;2022-10-18T07:52:28;13.20;99.90
5850;DHT22;2951;47.712;9.400;2022-10-18T07:54:55;13.30;99.90
5850;DHT22;2951;47.712;9.400;2022-10-18T07:57:21;13.40;99.90
5850;DHT22;2951;47.712;9.400;2022-10-18T07:59:49;13.50;99.90
5850;DHT22;2951;47.712;9.400;2022-10-18T08:02:22;13.70;99.90
5850;DHT22;2951;47.712;9.400;2022-10-18T08:04:49;13.80;99.90
5850;DHT22;2951;47.712;9.400;2022-10-18T08:07:15;13.90;99.90
5850;DHT22;2951;47.712;9.400;2022-10-18T08:09:42;14.00;99.90
5850;DHT22;2951;47.712;9.400;2022-10-18T08:12:09;14.10;99.90
5850;DHT22;2951;47.712;9.400;2022-10-18T08:14:35;14.20;99.90
5850;DHT22;2951;47.712;9.400;2022-10-18T08:17:02;14.30;99.90
5850;DHT22;2951;47.712;9.400;2022-10-18T08:19:29;14.40;99.90
5850;DHT22;2951;47.712;9.400;2022-10-18T08:21:55;14.40;99.90
5850;DHT22;2951;47.712;9.400;2022-10-18T08:24:22;14.40;99.90
5850;DHT22;2951;47.712;9.400;2022-10-18T08:26:49;14.50;99.90
5850;DHT22;2951;47.712;9.400;2022-10-18T08:29:16;14.60;99.90
5850;DHT22;2951;47.712;9.400;2022-10-18T08:31:49;14.70;99.90
5850;DHT22;2951;47.712;9.400;2022-10-18T08:34:16;14.70;99.90
5850;DHT22;2951;47.712;9.400;2022-10-18T08:36:45;14.70;99.90
5850;DHT22;2951;47.712;9.400;2022-10-18T08:39:12;14.70;99.90
5850;DHT22;2951;47.712;9.400;2022-10-18T08:41:48;14.70;99.90
5850;DHT22;2951;47.712;9.400;2022-10-18T08:46:44;14.90;99.90
5850;DHT22;2951;47.712;9.400;2022-10-18T08:49:18;14.90;99.90
5850;DHT22;2951;47.712;9.400;2022-10-18T08:51:47;15.00;99.90
5850;DHT22;2951;47.712;9.400;2022-10-18T08:54:15;15.00;99.90
5850;DHT22;2951;47.712;9.400;2022-10-18T08:56:48;15.10;99.90
5850;DHT22;2951;47.712;9.400;2022-10-18T08:59:20;15.10;99.90
5850;DHT22;2951;47.712;9.400;2022-10-18T09:04:26;15.30;99.90
5850;DHT22;2951;47.712;9.400;2022-10-18T09:25:16;15.80;99.90
5850;DHT22;2951;47.712;9.400;2022-10-18T09:27:53;15.80;99.90
5850;DHT22;2951;47.712;9.400;2022-10-18T09:32:53;16.00;99.90
5850;DHT22;2951;47.712;9.400;2022-10-18T09:35:29;16.00;99.90
5850;DHT22;2951;47.712;9.400;2022-10-18T09:38:03;16.10;99.90
5850;DHT22;2951;47.712;9.400;2022-10-18T09:40:32;16.20;99.90
5850;DHT22;2951;47.712;9.400;2022-10-18T09:43:04;16.30;99.90
5850;DHT22;2951;47.712;9.400;2022-10-18T09:45:35;16.30;99.90
5850;DHT22;2951;47.712;9.400;2022-10-18T09:48:11;16.40;99.90
5850;DHT22;2951;47.712;9.400;2022-10-18T09:58:46;16.80;99.90
5850;DHT22;2951;47.712;9.400;2022-10-18T10:01:14;16.80;99.90
5850;DHT22;2951;47.712;9.400;2022-10-18T10:03:41;16.90;99.90
5850;DHT22;2951;47.712;9.400;2022-10-18T10:08:43;17.00;99.90
5850;DHT22;2951;47.712;9.400;2022-10-18T10:11:29;17.10;99.90
5850;DHT22;2951;47.712;9.400;2022-10-18T10:13:57;17.30;99.90
5850;DHT22;2951;47.712;9.400;2022-10-18T10:16:33;17.40;99.90
5850;DHT22;2951;47.712;9.400;2022-10-18T10:18:59;17.40;99.90
5850;DHT22;2951;47.712;9.400;2022-10-18T10:21:26;17.50;99.90
5850;DHT22;2951;47.712;9.400;2022-10-18T10:23:53;17.60;99.90
5850;DHT22;2951;47.712;9.400;2022-10-18T10:28:48;17.80;99.90
5850;DHT22;2951;47.712;9.400;2022-10-18T10:31:16;17.90;99.90
5850;DHT22;2951;47.712;9.400;2022-10-18T10:33:44;18.00;99.90
5850;DHT22;2951;47.712;9.400;2022-10-18T10:36:16;18.10;99.90
5850;DHT22;2951;47.712;9.400;2022-10-18T10:38:43;18.20;99.90
5850;DHT22;2951;47.712;9.400;2022-10-18T10:41:19;18.40;99.90
5850;DHT22;2951;47.712;9.400;2022-10-18T10:43:47;18.50;99.90
5850;DHT22;2951;47.712;9.400;2022-10-18T10:46:15;18.60;99.90
5850;DHT22;2951;47.712;9.400;2022-10-18T10:48:46;18.60;99.90
5850;DHT22;2951;47.712;9.400;2022-10-18T10:51:14;18.70;99.90
5850;DHT22;2951;47.712;9.400;2022-10-18T10:53:42;18.70;99.90
5850;DHT22;2951;47.712;9.400;2022-10-18T10:56:16;18.80;99.90
5850;DHT22;2951;47.712;9.400;2022-10-18T10:58:44;18.90;99.90
5850;DHT22;2951;47.712;9.400;2022-10-18T11:01:18;19.00;99.90
5850;DHT22;2951;47.712;9.400;2022-10-18T11:03:47;19.30;99.90
5850;DHT22;2951;47.712;9.400;2022-10-18T11:08:53;19.30;99.90
5850;DHT22;2951;47.712;9.400;2022-10-18T11:11:21;19.40;99.90
5850;DHT22;2951;47.712;9.400;2022-10-18T11:14:13;19.50;99.90
5850;DHT22;2951;47.712;9.400;2022-10-18T11:17:01;19.50;99.90
5850;DHT22;2951;47.712;9.400;2022-10-18T11:22:00;19.70;99.90
5850;DHT22;2951;47.712;9.400;2022-10-18T11:24:29;19.80;99.90
5850;DHT22;2951;47.712;9.400;2022-10-18T11:27:02;19.80;99.90
5850;DHT22;2951;47.712;9.400;2022-10-18T11:32:41;19.90;99.90
5850;DHT22;2951;47.712;9.400;2022-10-18T11:45:53;20.30;99.90
5850;DHT22;2951;47.712;9.400;2022-10-18T11:50:55;20.40;99.90
5850;DHT22;2951;47.712;9.400;2022-10-18T11:56:05;20.60;99.90
5850;DHT22;2951;47.712;9.400;2022-10-18T12:06:44;20.60;99.90
5850;DHT22;2951;47.712;9.400;2022-10-18T12:11:55;20.30;99.90
5850;DHT22;2951;47.712;9.400;2022-10-18T12:14:27;20.30;99.90
5850;DHT22;2951;47.712;9.400;2022-10-18T12:16:56;20.30;99.90
5850;DHT22;2951;47.712;9.400;2022-10-18T12:19:44;20.40;99.90
5850;DHT22;2951;47.712;9.400;2022-10-18T12:24:40;20.50;99.90
5850;DHT22;2951;47.712;9.400;2022-10-18T12:27:08;20.40;99.90
5850;DHT22;2951;47.712;9.400;2022-10-18T12:32:17;20.70;99.90
5850;DHT22;2951;47.712;9.400;2022-10-18T12:34:47;20.40;99.90
5850;DHT22;2951;47.712;9.400;2022-10-18T12:40:47;20.10;99.90
5850;DHT22;2951;47.712;9.400;2022-10-18T12:42:48;20.00;99.90
5850;DHT22;2951;47.712;9.400;2022-10-18T12:45:18;20.10;99.90
5850;DHT22;2951;47.712;9.400;2022-10-18T12:47:46;20.10;99.90
5850;DHT22;2951;47.712;9.400;2022-10-18T12:50:27;20.20;99.90
5850;DHT22;2951;47.712;9.400;2022-10-18T12:53:01;20.20;99.90
5850;DHT22;2951;47.712;9.400;2022-10-18T12:55:30;20.30;99.90
5850;DHT22;2951;47.712;9.400;2022-10-18T12:57:59;20.40;99.90
5850;DHT22;2951;47.712;9.400;2022-10-18T13:24:05;21.90;99.90
5850;DHT22;2951;47.712;9.400;2022-10-18T13:34:36;21.60;99.90
5850;DHT22;2951;47.712;9.400;2022-10-18T13:37:05;21.70;99.90
5850;DHT22;2951;47.712;9.400;2022-10-18T13:39:43;21.80;99.90
5850;DHT22;2951;47.712;9.400;2022-10-18T13:44:40;22.00;99.90
5850;DHT22;2951;47.712;9.400;2022-10-18T13:47:09;22.20;99.90
5850;DHT22;2951;47.712;9.400;2022-10-18T13:49:43;22.10;99.90
5850;DHT22;2951;47.712;9.400;2022-10-18T14:02:52;22.70;99.90
5850;DHT22;2951;47.712;9.400;2022-10-18T14:08:09;23.10;99.90
5850;DHT22;2951;47.712;9.400;2022-10-18T14:10:39;23.30;99.90
5850;DHT22;2951;47.712;9.400;2022-10-18T14:13:27;23.30;99.90
5850;DHT22;2951;47.712;9.400;2022-10-18T14:15:59;23.40;99.90
5850;DHT22;2951;47.712;9.400;2022-10-18T14:18:31;23.20;99.90
5850;DHT22;2951;47.712;9.400;2022-10-18T14:21:07;23.30;99.90
5850;DHT22;2951;47.712;9.400;2022-10-18T14:23:42;23.20;99.90
5850;DHT22;2951;47.712;9.400;2022-10-18T14:28:36;23.10;99.90
5850;DHT22;2951;47.712;9.400;2022-10-18T14:31:23;23.70;99.90
5850;DHT22;2951;47.712;9.400;2022-10-18T14:33:54;24.00;99.90
5850;DHT22;2951;47.712;9.400;2022-10-18T14:36:24;24.30;99.90
5850;DHT22;2951;47.712;9.400;2022-10-18T14:38:58;24.30;99.90
5850;DHT22;2951;47.712;9.400;2022-10-18T14:41:26;24.60;99.90
5850;DHT22;2951;47.712;9.400;2022-10-18T14:46:59;24.80;99.90
5850;DHT22;2951;47.712;9.400;2022-10-18T14:49:26;24.40;99.90
5850;DHT22;2951;47.712;9.400;2022-10-18T14:51:59;24.70;99.90
5850;DHT22;2951;47.712;9.400;2022-10-18T14:54:30;24.50;99.90
5850;DHT22;2951;47.712;9.400;2022-10-18T14:56:58;24.80;99.90
5850;DHT22;2951;47.712;9.400;2022-10-18T14:59:26;25.10;99.90
5850;DHT22;2951;47.712;9.400;2022-10-18T15:04:20;23.10;99.90
5850;DHT22;2951;47.712;9.400;2022-10-18T15:06:53;22.50;99.90
5850;DHT22;2951;47.712;9.400;2022-10-18T15:09:20;22.30;99.90
5850;DHT22;2951;47.712;9.400;2022-10-18T15:11:48;22.20;99.90
5850;DHT22;2951;47.712;9.400;2022-10-18T15:14:16;22.00;99.90
5850;DHT22;2951;47.712;9.400;2022-10-18T15:16:43;21.70;99.90
5850;DHT22;2951;47.712;9.400;2022-10-18T15:21:54;21.70;99.90
5850;DHT22;2951;47.712;9.400;2022-10-18T15:24:34;21.50;99.90
5850;DHT22;2951;47.712;9.400;2022-10-18T15:27:11;21.50;99.90
5850;DHT22;2951;47.712;9.400;2022-10-18T15:29:39;21.40;99.90
5850;DHT22;2951;47.712;9.400;2022-10-18T15:32:13;21.30;99.90
5850;DHT22;2951;47.712;9.400;2022-10-18T15:34:40;21.20;99.90
5850;DHT22;2951;47.712;9.400;2022-10-18T15:37:30;21.10;99.90
5850;DHT22;2951;47.712;9.400;2022-10-18T15:42:39;21.60;99.90
5850;DHT22;2951;47.712;9.400;2022-10-18T15:50:50;21.80;99.90
5850;DHT22;2951;47.712;9.400;2022-10-18T15:58:39;21.20;99.90
5850;DHT22;2951;47.712;9.400;2022-10-18T16:01:13;21.10;99.90
5850;DHT22;2951;47.712;9.400;2022-10-18T16:03:40;20.80;99.90
5850;DHT22;2951;47.712;9.400;2022-10-18T16:06:08;20.60;99.90
5850;DHT22;2951;47.712;9.400;2022-10-18T16:08:38;20.40;99.90
5850;DHT22;2951;47.712;9.400;2022-10-18T16:11:07;20.20;99.90
5850;DHT22;2951;47.712;9.400;2022-10-18T16:13:34;20.00;99.90
5850;DHT22;2951;47.712;9.400;2022-10-18T16:16:01;20.00;99.90
5850;DHT22;2951;47.712;9.400;2022-10-18T16:18:27;19.80;99.90
5850;DHT22;2951;47.712;9.400;2022-10-18T16:20:54;19.70;99.90
5850;DHT22;2951;47.712;9.400;2022-10-18T16:23:23;19.60;99.90
5850;DHT22;2951;47.712;9.400;2022-10-18T16:25:50;19.50;99.90
5850;DHT22;2951;47.712;9.400;2022-10-18T16:28:18;19.40;99.90
5850;DHT22;2951;47.712;9.400;2022-10-18T16:30:47;19.00;99.90
5850;DHT22;2951;47.712;9.400;2022-10-18T16:33:16;18.80;99.90
5850;DHT22;2951;47.712;9.400;2022-10-18T16:35:46;18.60;99.90
5850;DHT22;2951;47.712;9.400;2022-10-18T16:38:21;18.40;99.90
5850;DHT22;2951;47.712;9.400;2022-10-18T16:40:49;18.20;99.90
5850;DHT22;2951;47.712;9.400;2022-10-18T16:43:16;18.20;99.90
5850;DHT22;2951;47.712;9.400;2022-10-18T16:45:42;18.20;99.90
5850;DHT22;2951;47.712;9.400;2022-10-18T16:48:13;18.10;99.90
5850;DHT22;2951;47.712;9.400;2022-10-18T16:50:40;18.00;99.90
5850;DHT22;2951;47.712;9.400;2022-10-18T16:53:07;17.80;99.90
5850;DHT22;2951;47.712;9.400;2022-10-18T16:55:34;17.90;99.90
5850;DHT22;2951;47.712;9.400;2022-10-18T16:58:00;17.80;99.90
5850;DHT22;2951;47.712;9.400;2022-10-18T17:00:27;17.70;99.90
5850;DHT22;2951;47.712;9.400;2022-10-18T17:02:54;17.60;99.90
5850;DHT22;2951;47.712;9.400;2022-10-18T17:05:21;17.50;99.90
5850;DHT22;2951;47.712;9.400;2022-10-18T17:07:48;17.40;99.90
5850;DHT22;2951;47.712;9.400;2022-10-18T17:10:16;17.40;99.90
5850;DHT22;2951;47.712;9.400;2022-10-18T17:12:44;17.30;99.90
5850;DHT22;2951;47.712;9.400;2022-10-18T17:15:11;17.30;99.90
5850;DHT22;2951;47.712;9.400;2022-10-18T17:17:38;17.20;99.90
5850;DHT22;2951;47.712;9.400;2022-10-18T17:20:06;17.20;99.90
5850;DHT22;2951;47.712;9.400;2022-10-18T17:22:33;17.20;99.90
5850;DHT22;2951;47.712;9.400;2022-10-18T17:25:00;17.10;99.90
5850;DHT22;2951;47.712;9.400;2022-10-18T17:27:26;17.10;99.90
5850;DHT22;2951;47.712;9.400;2022-10-18T17:29:53;17.00;99.90
5850;DHT22;2951;47.712;9.400;2022-10-18T17:32:20;17.00;99.90
5850;DHT22;2951;47.712;9.400;2022-10-18T17:34:46;16.90;99.90
5850;DHT22;2951;47.712;9.400;2022-10-18T17:37:13;16.80;99.90
5850;DHT22;2951;47.712;9.400;2022-10-18T17:39:40;16.70;99.90
5850;DHT22;2951;47.712;9.400;2022-10-18T17:42:06;16.70;99.90
5850;DHT22;2951;47.712;9.400;2022-10-18T17:44:33;16.60;99.90
5850;DHT22;2951;47.712;9.400;2022-10-18T17:47:00;16.50;99.90
5850;DHT22;2951;47.712;9.400;2022-10-18T17:49:26;16.40;99.90
5850;DHT22;2951;47.712;9.400;2022-10-18T17:51:53;16.40;99.90
5850;DHT22;2951;47.712;9.400;2022-10-18T17:54:20;16.30;99.90
5850;DHT22;2951;47.712;9.400;2022-10-18T17:56:46;16.30;99.90
5850;DHT22;2951;47.712;9.400;2022-10-18T17:59:15;16.30;99.90
5850;DHT22;2951;47.712;9.400;2022-10-18T18:01:42;16.30;99.90
5850;DHT22;2951;47.712;9.400;2022-10-18T18:04:08;16.30;99.90
5850;DHT22;2951;47.712;9.400;2022-10-18T18:06:36;16.30;99.90
5850;DHT22;2951;47.712;9.400;2022-10-18T18:09:05;16.20;99.90
5850;DHT22;2951;47.712;9.400;2022-10-18T18:11:33;16.10;99.90
5850;DHT22;2951;47.712;9.400;2022-10-18T18:14:00;16.10;99.90
5850;DHT22;2951;47.712;9.400;2022-10-18T18:16:28;16.10;99.90
5850;DHT22;2951;47.712;9.400;2022-10-18T18:18:56;16.10;99.90
5850;DHT22;2951;47.712;9.400;2022-10-18T18:21:23;16.00;99.90
5850;DHT22;2951;47.712;9.400;2022-10-18T18:23:50;16.00;99.90
5850;DHT22;2951;47.712;9.400;2022-10-18T18:26:17;16.10;99.90
5850;DHT22;2951;47.712;9.400;2022-10-18T18:28:44;16.10;99.90
5850;DHT22;2951;47.712;9.400;2022-10-18T18:31:14;16.20;99.90
5850;DHT22;2951;47.712;9.400;2022-10-18T18:33:42;16.30;99.90
5850;DHT22;2951;47.712;9.400;2022-10-18T18:36:09;16.30;99.90
5850;DHT22;2951;47.712;9.400;2022-10-18T18:38:36;16.30;99.90
5850;DHT22;2951;47.712;9.400;2022-10-18T18:43:34;16.30;99.90
5850;DHT22;2951;47.712;9.400;2022-10-18T18:46:01;16.30;99.90
5850;DHT22;2951;47.712;9.400;2022-10-18T18:48:28;16.30;99.90
5850;DHT22;2951;47.712;9.400;2022-10-18T18:50:54;16.20;99.90
5850;DHT22;2951;47.712;9.400;2022-10-18T18:53:21;16.20;99.90
5850;DHT22;2951;47.712;9.400;2022-10-18T18:55:51;16.20;99.90
5850;DHT22;2951;47.712;9.400;2022-10-18T18:58:17;16.10;99.90
5850;DHT22;2951;47.712;9.400;2022-10-18T19:00:44;16.10;99.90
5850;DHT22;2951;47.712;9.400;2022-10-18T19:03:11;16.10;99.90